createdAt,value
2019-01-13T00:07:17.097Z,100091.70
2019-01-13T00:12:19.774Z,100096.06
2019-01-13T00:17:41.967Z,100349.28
2019-01-13T00:23:04.246Z,100353.89
2019-01-13T00:28:26.422Z,100362.97
2019-01-13T00:33:48.616Z,100120.43
2019-01-13T00:39:10.793Z,100088.04
2019-01-13T00:44:33.035Z,100352.48
2019-01-13T00:49:55.231Z,100350.26
2019-01-13T00:55:17.442Z,100353.69
2019-01-13T01:00:32.835Z,100363.95
2019-01-13T01:11:25.490Z,100102.30
2019-01-13T01:16:47.671Z,100330.73
2019-01-13T01:21:51.329Z,100071.80
2019-01-13T01:27:14.457Z,100319.43
2019-01-13T01:32:36.722Z,100092.69
2019-01-13T01:37:58.917Z,100320.99
2019-01-13T01:43:21.124Z,100219.58
2019-01-13T01:48:43.303Z,100346.44
2019-01-13T01:53:45.985Z,100350.51
2019-01-13T01:59:01.803Z,100311.20
2019-01-13T02:04:23.987Z,100323.81
2019-01-13T02:09:26.703Z,100213.09
2019-01-13T02:14:48.911Z,100300.92
2019-01-13T02:20:12.642Z,100304.58
2019-01-13T02:25:56.229Z,100304.14
2019-01-13T02:31:18.408Z,100089.26
2019-01-13T02:36:40.610Z,100173.30
2019-01-13T02:42:02.905Z,100280.80
2019-01-13T02:47:05.572Z,100295.98
2019-01-13T02:52:27.748Z,100286.73
2019-01-13T02:57:49.918Z,100289.62
2019-01-13T03:02:52.692Z,100281.58
2019-01-13T03:08:14.882Z,100287.45
2019-01-13T03:13:37.054Z,100291.04
2019-01-13T03:19:20.573Z,100311.59
2019-01-13T03:24:42.797Z,100285.22
2019-01-13T03:30:07.683Z,100292.70
2019-01-13T03:35:10.395Z,100278.89
2019-01-13T03:40:32.601Z,100280.27
2019-01-13T03:45:54.774Z,99870.09
2019-01-13T03:51:16.959Z,99956.28
2019-01-13T03:56:39.176Z,100253.87
2019-01-13T04:01:54.082Z,100241.43
2019-01-13T04:07:17.170Z,100195.25
2019-01-13T04:12:32.315Z,99990.67
2019-01-13T04:18:15.901Z,100189.36
2019-01-13T04:23:38.201Z,100178.89
2019-01-13T04:29:00.620Z,100060.05
2019-01-13T04:34:22.918Z,100188.91
2019-01-13T04:39:45.238Z,99903.58
2019-01-13T04:45:07.640Z,100143.17
2019-01-13T04:50:29.843Z,100115.09
2019-01-13T04:55:52.056Z,100119.83
2019-01-13T05:01:07.224Z,100136.73
2019-01-13T05:06:29.479Z,100134.55
2019-01-13T05:11:51.640Z,100124.05
2019-01-13T05:17:13.850Z,100112.48
2019-01-13T05:22:36.169Z,100095.84
2019-01-13T05:27:38.849Z,100117.19
2019-01-13T05:33:01.026Z,100087.74
2019-01-13T05:38:23.213Z,100072.82
2019-01-13T05:43:45.387Z,99849.53
2019-01-13T05:49:07.567Z,100012.27
2019-01-13T05:54:29.735Z,100036.09
2019-01-13T05:59:45.251Z,100028.30
2019-01-13T06:05:07.530Z,100022.47
2019-01-13T06:10:29.744Z,100024.98
2019-01-13T06:15:51.944Z,100032.45
2019-01-13T06:21:14.222Z,100028.33
2019-01-13T06:26:36.404Z,100006.42
2019-01-13T06:31:58.604Z,99994.42
2019-01-13T06:37:20.849Z,99990.59
2019-01-13T06:42:23.520Z,99990.03
2019-01-13T06:47:45.710Z,99972.88
2019-01-13T06:53:07.902Z,99746.88
2019-01-13T06:58:31.127Z,99966.16
2019-01-13T07:03:53.361Z,99980.33
2019-01-13T07:09:15.542Z,99954.70
2019-01-13T07:14:37.713Z,99937.20
2019-01-13T07:20:00.279Z,99936.95
2019-01-13T07:25:22.455Z,99924.78
2019-01-13T07:30:44.934Z,99904.00
2019-01-13T07:36:07.123Z,99885.48
2019-01-13T07:41:29.296Z,99867.59
2019-01-13T07:46:51.728Z,99854.09
2019-01-13T07:52:13.912Z,99847.81
2019-01-13T07:57:36.090Z,99833.87
2019-01-13T08:02:38.769Z,99806.71
2019-01-13T08:08:00.954Z,99796.47
2019-01-13T08:13:03.668Z,99800.19
2019-01-13T08:18:25.837Z,99773.19
2019-01-13T08:23:48.040Z,99776.06
2019-01-13T08:29:10.212Z,99759.88
2019-01-13T08:34:32.409Z,99747.34
2019-01-13T08:39:35.091Z,99519.89
2019-01-13T08:44:57.293Z,99728.30
2019-01-13T08:50:20.950Z,99488.69
2019-01-13T08:55:43.166Z,99705.19
2019-01-13T09:00:58.884Z,99694.07
2019-01-13T09:06:01.569Z,99678.69
2019-01-13T09:11:04.337Z,99667.19
2019-01-13T09:16:26.534Z,99667.19
2019-01-13T09:21:48.716Z,99652.78
2019-01-13T09:26:51.398Z,99436.77
2019-01-13T09:32:13.587Z,99647.27
2019-01-13T09:37:35.862Z,99638.66
2019-01-13T09:42:59.174Z,99642.52
2019-01-13T09:48:22.262Z,99635.84
2019-01-13T09:53:45.441Z,99615.62
2019-01-13T09:58:48.218Z,99639.77
2019-01-13T10:04:10.417Z,99605.84
2019-01-13T10:09:32.589Z,99611.83
2019-01-13T10:14:54.779Z,99589.58
2019-01-13T10:19:57.458Z,99568.97
2019-01-13T10:25:19.662Z,99562.18
2019-01-13T10:30:41.865Z,99557.27
2019-01-13T10:35:44.992Z,99576.19
2019-01-13T10:41:07.355Z,99544.08
2019-01-13T10:46:29.649Z,99552.30
2019-01-13T10:51:51.878Z,99398.13
2019-01-13T10:57:14.057Z,99535.52
2019-01-13T11:02:29.475Z,99507.95
2019-01-13T11:12:42.378Z,99492.04
2019-01-13T11:18:05.008Z,99477.19
2019-01-13T11:23:08.044Z,99194.57
2019-01-13T11:28:30.229Z,99465.72
2019-01-13T11:33:52.436Z,99473.58
2019-01-13T11:39:14.621Z,99440.62
2019-01-13T11:44:36.822Z,99439.39
2019-01-13T11:49:59.038Z,99442.92
2019-01-13T11:55:21.233Z,99407.72
2019-01-13T12:00:39.266Z,99416.31
2019-01-13T12:06:01.648Z,99408.19
2019-01-13T12:11:24.207Z,99138.08
2019-01-13T12:16:46.538Z,99386.11
2019-01-13T12:21:49.229Z,99376.55
2019-01-13T12:26:51.917Z,99357.58
2019-01-13T12:32:14.130Z,99344.64
2019-01-13T12:37:36.663Z,99113.73
2019-01-13T12:42:58.870Z,99118.63
2019-01-13T12:48:21.020Z,99323.30
2019-01-13T12:53:43.247Z,99310.45
2019-01-13T12:58:46.308Z,99300.98
2019-01-13T13:04:08.888Z,99300.59
2019-01-13T13:09:11.778Z,99284.77
2019-01-13T13:14:34.214Z,99253.05
2019-01-13T13:19:56.535Z,99271.49
2019-01-13T13:25:18.709Z,99289.24
2019-01-13T13:30:21.929Z,99266.52
2019-01-13T13:35:24.607Z,99224.33
2019-01-13T13:40:46.785Z,99216.05
2019-01-13T13:45:49.458Z,98919.95
2019-01-13T13:51:11.628Z,99207.69
2019-01-13T13:56:33.827Z,99208.40
2019-01-13T14:01:49.172Z,99199.38
2019-01-13T14:07:11.360Z,99175.27
2019-01-13T14:12:35.340Z,99190.67
2019-01-13T14:17:59.364Z,99182.01
2019-01-13T14:23:22.935Z,99176.78
2019-01-13T14:28:46.044Z,99168.27
2019-01-13T14:34:08.303Z,99147.70
2019-01-13T14:39:30.483Z,99156.89
2019-01-13T14:44:52.759Z,98882.84
2019-01-13T14:50:17.458Z,99132.73
2019-01-13T14:55:39.658Z,99137.52
2019-01-13T15:00:55.024Z,98878.27
2019-01-13T15:06:17.181Z,98997.17
2019-01-13T15:11:39.373Z,99088.00
2019-01-13T15:17:01.573Z,99073.60
2019-01-13T15:22:23.787Z,99104.63
2019-01-13T15:27:26.469Z,99080.80
2019-01-13T15:32:48.657Z,99088.16
2019-01-13T15:37:51.346Z,99112.57
2019-01-13T15:43:13.541Z,99099.09
2019-01-13T15:48:35.732Z,99080.14
2019-01-13T15:53:57.938Z,98857.97
2019-01-13T15:59:13.618Z,99086.41
2019-01-13T16:04:35.844Z,99057.83
2019-01-13T16:09:58.046Z,99044.18
2019-01-13T16:15:20.233Z,99032.41
2019-01-13T16:20:42.426Z,99026.34
2019-01-13T16:26:04.585Z,98781.91
2019-01-13T16:31:26.791Z,99021.58
2019-01-13T16:36:49.005Z,99022.41
2019-01-13T16:41:51.702Z,99096.08
2019-01-13T16:47:13.896Z,99096.52
2019-01-13T16:52:18.167Z,99109.41
2019-01-13T16:57:20.917Z,99103.50
2019-01-13T17:02:37.444Z,99076.13
2019-01-13T17:07:59.632Z,99108.89
2019-01-13T17:13:21.819Z,99073.09
2019-01-13T17:18:44.012Z,99100.55
2019-01-13T17:24:06.240Z,99135.33
2019-01-13T17:29:08.950Z,99123.96
2019-01-13T17:34:35.860Z,99105.52
2019-01-13T17:39:55.252Z,98705.86
2019-01-13T17:45:18.763Z,99092.95
2019-01-13T17:50:40.945Z,99081.20
2019-01-13T17:55:43.732Z,99106.86
2019-01-13T18:01:10.856Z,99084.58
2019-01-13T18:06:33.068Z,99083.14
2019-01-13T18:11:55.279Z,98729.63
2019-01-13T18:17:17.456Z,98831.66
2019-01-13T18:22:39.642Z,99109.45
2019-01-13T18:28:01.831Z,99140.83
2019-01-13T18:33:24.004Z,99121.66
2019-01-13T18:38:26.674Z,99126.17
2019-01-13T18:43:29.383Z,99126.86
2019-01-13T18:48:51.582Z,99127.88
2019-01-13T18:54:13.774Z,99127.30
2019-01-13T18:59:29.362Z,99177.30
2019-01-13T19:04:32.040Z,99172.26
2019-01-13T19:09:54.215Z,99149.12
2019-01-13T19:15:16.414Z,99164.44
2019-01-13T19:20:38.926Z,99152.46
2019-01-13T19:26:01.148Z,99183.38
2019-01-13T19:31:23.347Z,99156.76
2019-01-13T19:36:46.526Z,99186.88
2019-01-13T19:41:49.278Z,99165.36
2019-01-13T19:47:11.548Z,99168.56
2019-01-13T19:52:33.910Z,99192.66
2019-01-13T19:57:36.592Z,99172.60
2019-01-13T20:02:39.277Z,99167.38
2019-01-13T20:08:01.459Z,99173.77
2019-01-13T20:13:23.640Z,98950.02
2019-01-13T20:18:45.855Z,99193.25
2019-01-13T20:23:48.621Z,99161.08
2019-01-13T20:28:51.291Z,99165.59
2019-01-13T20:33:54.120Z,99164.01
2019-01-13T20:39:16.297Z,99180.03
2019-01-13T20:44:38.489Z,99181.77
2019-01-13T20:50:00.695Z,99198.27
2019-01-13T20:55:44.241Z,99178.19
2019-01-13T21:00:59.949Z,99191.67
2019-01-13T21:06:22.180Z,99193.58
2019-01-13T21:11:44.384Z,99089.37
2019-01-13T21:16:47.068Z,99208.30
2019-01-13T21:22:09.276Z,99211.20
2019-01-13T21:27:31.684Z,99232.24
2019-01-13T21:32:54.650Z,99214.67
2019-01-13T21:38:16.825Z,99137.42
2019-01-13T21:43:39.047Z,99258.32
2019-01-13T21:49:01.210Z,99263.02
2019-01-13T21:54:23.395Z,99149.92
2019-01-13T21:59:38.444Z,99096.37
2019-01-13T22:05:00.725Z,99271.13
2019-01-13T22:10:44.222Z,99275.53
2019-01-13T22:15:46.895Z,99265.22
2019-01-13T22:21:09.073Z,99273.91
2019-01-13T22:26:31.247Z,99286.01
2019-01-13T22:31:53.429Z,99314.09
2019-01-13T22:37:15.611Z,99165.22
2019-01-13T22:42:37.786Z,99314.65
2019-01-13T22:47:59.974Z,99313.86
2019-01-13T22:53:22.532Z,99311.43
2019-01-13T22:58:25.212Z,99366.41
2019-01-13T23:03:27.970Z,99375.69
2019-01-13T23:08:50.145Z,99384.03
2019-01-13T23:13:52.854Z,99382.09
2019-01-13T23:19:15.027Z,99375.91
2019-01-13T23:24:17.704Z,99377.78
2019-01-13T23:29:39.887Z,99390.97
2019-01-13T23:35:02.093Z,99031.34
2019-01-13T23:40:24.268Z,99438.25
2019-01-13T23:45:26.974Z,99463.16
2019-01-13T23:50:49.147Z,99459.62
2019-01-13T23:55:51.840Z,99176.13
